sensor_id;sensor_type;location;lat;lon;timestamp;P1;durP1;ratioP1;P2;durP2;ratioP2
65572;SDS011;52214;50.940;13.996;2023-02-11T00:01:36;14.50;;;6.85;;
65572;SDS011;52214;50.940;13.996;2023-02-11T00:04:03;16.07;;;7.77;;
65572;SDS011;52214;50.940;13.996;2023-02-11T00:06:31;15.43;;;7.45;;
65572;SDS011;52214;50.940;13.996;2023-02-11T00:08:58;14.80;;;7.90;;
65572;SDS011;52214;50.940;13.996;2023-02-11T00:11:24;17.52;;;7.75;;
65572;SDS011;52214;50.940;13.996;2023-02-11T00:13:54;14.32;;;7.07;;
65572;SDS011;52214;50.940;13.996;2023-02-11T00:16:22;15.97;;;7.30;;
65572;SDS011;52214;50.940;13.996;2023-02-11T00:18:48;15.77;;;8.00;;
65572;SDS011;52214;50.940;13.996;2023-02-11T00:21:15;14.27;;;7.63;;
65572;SDS011;52214;50.940;13.996;2023-02-11T00:23:43;16.30;;;7.33;;
65572;SDS011;52214;50.940;13.996;2023-02-11T00:26:11;17.88;;;7.43;;
65572;SDS011;52214;50.940;13.996;2023-02-11T00:28:41;15.50;;;7.53;;
65572;SDS011;52214;50.940;13.996;2023-02-11T00:31:08;15.93;;;7.75;;
65572;SDS011;52214;50.940;13.996;2023-02-11T00:33:33;15.87;;;7.80;;
65572;SDS011;52214;50.940;13.996;2023-02-11T00:36:07;17.00;;;7.88;;
65572;SDS011;52214;50.940;13.996;2023-02-11T00:38:35;15.40;;;7.40;;
65572;SDS011;52214;50.940;13.996;2023-02-11T00:41:00;14.68;;;7.15;;
65572;SDS011;52214;50.940;13.996;2023-02-11T00:43:26;17.90;;;8.30;;
65572;SDS011;52214;50.940;13.996;2023-02-11T00:45:51;15.90;;;8.10;;
65572;SDS011;52214;50.940;13.996;2023-02-11T00:48:20;17.77;;;7.37;;
65572;SDS011;52214;50.940;13.996;2023-02-11T00:50:45;15.20;;;7.30;;
65572;SDS011;52214;50.940;13.996;2023-02-11T00:53:11;15.10;;;7.90;;
65572;SDS011;52214;50.940;13.996;2023-02-11T00:55:37;16.70;;;8.45;;
65572;SDS011;52214;50.940;13.996;2023-02-11T00:58:02;16.83;;;8.30;;
65572;SDS011;52214;50.940;13.996;2023-02-11T01:00:28;17.87;;;8.07;;
65572;SDS011;52214;50.940;13.996;2023-02-11T01:02:53;16.33;;;8.40;;
65572;SDS011;52214;50.940;13.996;2023-02-11T01:05:20;17.37;;;7.73;;
65572;SDS011;52214;50.940;13.996;2023-02-11T01:07:46;13.85;;;7.10;;
65572;SDS011;52214;50.940;13.996;2023-02-11T01:10:12;16.55;;;7.85;;
65572;SDS011;52214;50.940;13.996;2023-02-11T01:12:38;15.35;;;7.82;;
65572;SDS011;52214;50.940;13.996;2023-02-11T01:15:05;15.63;;;7.07;;
65572;SDS011;52214;50.940;13.996;2023-02-11T01:17:33;14.77;;;7.95;;
65572;SDS011;52214;50.940;13.996;2023-02-11T01:20:02;16.73;;;8.27;;
65572;SDS011;52214;50.940;13.996;2023-02-11T01:22:33;14.57;;;7.68;;
65572;SDS011;52214;50.940;13.996;2023-02-11T01:25:01;17.23;;;8.02;;
65572;SDS011;52214;50.940;13.996;2023-02-11T01:27:27;16.87;;;8.00;;
65572;SDS011;52214;50.940;13.996;2023-02-11T01:29:53;16.38;;;7.93;;
65572;SDS011;52214;50.940;13.996;2023-02-11T01:32:19;17.67;;;8.13;;
65572;SDS011;52214;50.940;13.996;2023-02-11T01:34:44;21.17;;;9.13;;
65572;SDS011;52214;50.940;13.996;2023-02-11T01:37:10;17.97;;;8.27;;
65572;SDS011;52214;50.940;13.996;2023-02-11T01:39:36;17.23;;;8.63;;
65572;SDS011;52214;50.940;13.996;2023-02-11T01:42:01;16.90;;;8.10;;
65572;SDS011;52214;50.940;13.996;2023-02-11T01:44:29;17.88;;;8.20;;
65572;SDS011;52214;50.940;13.996;2023-02-11T01:46:57;19.08;;;8.88;;
65572;SDS011;52214;50.940;13.996;2023-02-11T01:49:26;16.47;;;8.93;;
65572;SDS011;52214;50.940;13.996;2023-02-11T01:52:16;19.75;;;9.15;;
65572;SDS011;52214;50.940;13.996;2023-02-11T01:54:47;19.63;;;9.48;;
65572;SDS011;52214;50.940;13.996;2023-02-11T01:57:37;18.13;;;8.20;;
65572;SDS011;52214;50.940;13.996;2023-02-11T02:00:10;17.43;;;8.07;;
65572;SDS011;52214;50.940;13.996;2023-02-11T02:02:42;18.67;;;8.82;;
65572;SDS011;52214;50.940;13.996;2023-02-11T02:15:40;18.77;;;9.40;;
65572;SDS011;52214;50.940;13.996;2023-02-11T02:29:44;16.60;;;8.57;;
65572;SDS011;52214;50.940;13.996;2023-02-11T02:40:39;19.00;;;9.43;;
65572;SDS011;52214;50.940;13.996;2023-02-11T02:43:26;15.50;;;8.20;;
65572;SDS011;52214;50.940;13.996;2023-02-11T02:45:53;18.33;;;8.95;;
65572;SDS011;52214;50.940;13.996;2023-02-11T02:48:28;16.55;;;9.18;;
65572;SDS011;52214;50.940;13.996;2023-02-11T02:51:07;16.40;;;8.93;;
65572;SDS011;52214;50.940;13.996;2023-02-11T02:54:17;16.60;;;8.63;;
65572;SDS011;52214;50.940;13.996;2023-02-11T02:56:54;19.30;;;9.40;;
65572;SDS011;52214;50.940;13.996;2023-02-11T02:59:35;17.30;;;8.45;;
65572;SDS011;52214;50.940;13.996;2023-02-11T03:02:25;18.02;;;9.00;;
65572;SDS011;52214;50.940;13.996;2023-02-11T03:10:35;17.77;;;8.60;;
65572;SDS011;52214;50.940;13.996;2023-02-11T03:13:04;18.92;;;9.20;;
65572;SDS011;52214;50.940;13.996;2023-02-11T03:15:33;20.50;;;9.30;;
65572;SDS011;52214;50.940;13.996;2023-02-11T03:18:04;17.77;;;8.70;;
65572;SDS011;52214;50.940;13.996;2023-02-11T03:20:34;16.08;;;8.68;;
65572;SDS011;52214;50.940;13.996;2023-02-11T03:23:06;21.67;;;8.97;;
65572;SDS011;52214;50.940;13.996;2023-02-11T03:25:40;21.95;;;9.77;;
65572;SDS011;52214;50.940;13.996;2023-02-11T03:28:20;19.90;;;9.73;;
65572;SDS011;52214;50.940;13.996;2023-02-11T03:31:04;18.42;;;8.18;;
65572;SDS011;52214;50.940;13.996;2023-02-11T03:33:45;18.95;;;10.15;;
65572;SDS011;52214;50.940;13.996;2023-02-11T03:36:31;19.97;;;9.87;;
65572;SDS011;52214;50.940;13.996;2023-02-11T03:39:01;19.98;;;9.50;;
65572;SDS011;52214;50.940;13.996;2023-02-11T03:41:28;18.95;;;9.32;;
65572;SDS011;52214;50.940;13.996;2023-02-11T03:43:56;20.00;;;9.07;;
65572;SDS011;52214;50.940;13.996;2023-02-11T03:46:26;19.63;;;9.35;;
65572;SDS011;52214;50.940;13.996;2023-02-11T03:48:57;21.37;;;9.23;;
65572;SDS011;52214;50.940;13.996;2023-02-11T03:51:27;19.67;;;9.32;;
65572;SDS011;52214;50.940;13.996;2023-02-11T03:53:55;17.27;;;8.85;;
65572;SDS011;52214;50.940;13.996;2023-02-11T03:56:24;19.02;;;8.90;;
65572;SDS011;52214;50.940;13.996;2023-02-11T03:58:53;18.58;;;9.27;;
65572;SDS011;52214;50.940;13.996;2023-02-11T04:01:18;18.80;;;8.97;;
65572;SDS011;52214;50.940;13.996;2023-02-11T04:03:47;19.27;;;9.10;;
65572;SDS011;52214;50.940;13.996;2023-02-11T04:06:13;21.88;;;9.70;;
65572;SDS011;52214;50.940;13.996;2023-02-11T04:08:38;20.93;;;9.73;;
65572;SDS011;52214;50.940;13.996;2023-02-11T04:11:04;20.25;;;9.93;;
65572;SDS011;52214;50.940;13.996;2023-02-11T04:13:30;22.67;;;10.10;;
65572;SDS011;52214;50.940;13.996;2023-02-11T04:15:55;19.67;;;9.65;;
65572;SDS011;52214;50.940;13.996;2023-02-11T04:18:21;20.97;;;9.60;;
65572;SDS011;52214;50.940;13.996;2023-02-11T04:20:47;17.63;;;9.60;;
65572;SDS011;52214;50.940;13.996;2023-02-11T04:23:14;20.35;;;9.45;;
65572;SDS011;52214;50.940;13.996;2023-02-11T04:25:40;20.13;;;10.20;;
65572;SDS011;52214;50.940;13.996;2023-02-11T04:28:06;19.27;;;9.07;;
65572;SDS011;52214;50.940;13.996;2023-02-11T04:30:32;18.48;;;9.30;;
65572;SDS011;52214;50.940;13.996;2023-02-11T04:32:57;18.97;;;9.27;;
65572;SDS011;52214;50.940;13.996;2023-02-11T04:35:23;20.95;;;10.15;;
65572;SDS011;52214;50.940;13.996;2023-02-11T04:37:49;17.73;;;9.43;;
65572;SDS011;52214;50.940;13.996;2023-02-11T04:40:14;18.47;;;9.37;;
65572;SDS011;52214;50.940;13.996;2023-02-11T04:42:40;19.00;;;9.50;;
65572;SDS011;52214;50.940;13.996;2023-02-11T04:45:06;20.63;;;9.37;;
65572;SDS011;52214;50.940;13.996;2023-02-11T04:47:32;19.92;;;9.48;;
65572;SDS011;52214;50.940;13.996;2023-02-11T04:49:58;21.27;;;10.48;;
65572;SDS011;52214;50.940;13.996;2023-02-11T04:52:24;19.77;;;8.80;;
65572;SDS011;52214;50.940;13.996;2023-02-11T04:54:49;18.00;;;8.90;;
65572;SDS011;52214;50.940;13.996;2023-02-11T04:57:15;18.95;;;9.77;;
65572;SDS011;52214;50.940;13.996;2023-02-11T04:59:40;19.00;;;9.60;;
65572;SDS011;52214;50.940;13.996;2023-02-11T05:02:06;19.23;;;9.63;;
65572;SDS011;52214;50.940;13.996;2023-02-11T05:04:32;19.70;;;9.60;;
65572;SDS011;52214;50.940;13.996;2023-02-11T05:06:57;17.50;;;9.43;;
65572;SDS011;52214;50.940;13.996;2023-02-11T05:09:23;18.17;;;9.27;;
65572;SDS011;52214;50.940;13.996;2023-02-11T05:11:48;19.23;;;9.73;;
65572;SDS011;52214;50.940;13.996;2023-02-11T05:14:14;18.77;;;8.80;;
65572;SDS011;52214;50.940;13.996;2023-02-11T05:16:40;15.63;;;8.80;;
65572;SDS011;52214;50.940;13.996;2023-02-11T05:19:05;20.67;;;9.53;;
65572;SDS011;52214;50.940;13.996;2023-02-11T05:21:31;17.77;;;8.93;;
65572;SDS011;52214;50.940;13.996;2023-02-11T05:23:57;20.60;;;9.88;;
65572;SDS011;52214;50.940;13.996;2023-02-11T05:26:23;19.55;;;9.52;;
65572;SDS011;52214;50.940;13.996;2023-02-11T05:28:48;18.07;;;9.67;;
65572;SDS011;52214;50.940;13.996;2023-02-11T05:31:14;20.67;;;9.83;;
65572;SDS011;52214;50.940;13.996;2023-02-11T05:33:41;19.13;;;9.57;;
65572;SDS011;52214;50.940;13.996;2023-02-11T05:36:08;19.17;;;9.88;;
65572;SDS011;52214;50.940;13.996;2023-02-11T05:38:36;20.50;;;9.75;;
65572;SDS011;52214;50.940;13.996;2023-02-11T05:41:02;18.85;;;9.43;;
65572;SDS011;52214;50.940;13.996;2023-02-11T05:43:29;19.10;;;9.57;;
65572;SDS011;52214;50.940;13.996;2023-02-11T05:45:55;18.90;;;9.40;;
65572;SDS011;52214;50.940;13.996;2023-02-11T05:48:21;20.02;;;9.55;;
65572;SDS011;52214;50.940;13.996;2023-02-11T05:50:46;19.37;;;9.77;;
65572;SDS011;52214;50.940;13.996;2023-02-11T05:53:12;17.35;;;9.20;;
65572;SDS011;52214;50.940;13.996;2023-02-11T05:55:39;15.90;;;9.00;;
65572;SDS011;52214;50.940;13.996;2023-02-11T05:58:05;18.38;;;9.02;;
65572;SDS011;52214;50.940;13.996;2023-02-11T06:00:32;17.98;;;9.57;;
65572;SDS011;52214;50.940;13.996;2023-02-11T06:02:58;19.77;;;9.83;;
65572;SDS011;52214;50.940;13.996;2023-02-11T06:05:23;17.02;;;9.23;;
65572;SDS011;52214;50.940;13.996;2023-02-11T06:07:49;19.37;;;9.40;;
65572;SDS011;52214;50.940;13.996;2023-02-11T06:10:15;19.00;;;9.13;;
65572;SDS011;52214;50.940;13.996;2023-02-11T06:12:40;15.83;;;8.73;;
65572;SDS011;52214;50.940;13.996;2023-02-11T06:15:06;16.95;;;8.70;;
65572;SDS011;52214;50.940;13.996;2023-02-11T06:17:32;18.65;;;8.25;;
65572;SDS011;52214;50.940;13.996;2023-02-11T06:19:58;17.70;;;9.25;;
65572;SDS011;52214;50.940;13.996;2023-02-11T06:22:25;18.05;;;8.77;;
65572;SDS011;52214;50.940;13.996;2023-02-11T06:24:51;17.53;;;8.67;;
65572;SDS011;52214;50.940;13.996;2023-02-11T06:27:17;17.67;;;9.38;;
65572;SDS011;52214;50.940;13.996;2023-02-11T06:29:45;16.95;;;9.07;;
65572;SDS011;52214;50.940;13.996;2023-02-11T06:32:12;17.57;;;8.57;;
65572;SDS011;52214;50.940;13.996;2023-02-11T06:34:38;18.60;;;9.23;;
65572;SDS011;52214;50.940;13.996;2023-02-11T06:37:04;18.27;;;8.90;;
65572;SDS011;52214;50.940;13.996;2023-02-11T06:39:30;18.58;;;9.70;;
65572;SDS011;52214;50.940;13.996;2023-02-11T06:41:56;16.38;;;8.60;;
65572;SDS011;52214;50.940;13.996;2023-02-11T06:44:21;17.47;;;8.23;;
65572;SDS011;52214;50.940;13.996;2023-02-11T06:46:47;17.70;;;8.85;;
65572;SDS011;52214;50.940;13.996;2023-02-11T06:49:13;19.17;;;8.90;;
65572;SDS011;52214;50.940;13.996;2023-02-11T06:51:38;16.55;;;9.32;;
65572;SDS011;52214;50.940;13.996;2023-02-11T06:54:05;17.57;;;8.10;;
65572;SDS011;52214;50.940;13.996;2023-02-11T06:56:31;17.17;;;8.18;;
65572;SDS011;52214;50.940;13.996;2023-02-11T06:58:57;18.88;;;8.90;;
65572;SDS011;52214;50.940;13.996;2023-02-11T07:01:23;17.90;;;9.55;;
65572;SDS011;52214;50.940;13.996;2023-02-11T07:03:50;16.85;;;8.43;;
65572;SDS011;52214;50.940;13.996;2023-02-11T07:06:19;15.20;;;8.27;;
65572;SDS011;52214;50.940;13.996;2023-02-11T07:08:46;16.10;;;8.80;;
65572;SDS011;52214;50.940;13.996;2023-02-11T07:11:15;16.40;;;8.55;;
65572;SDS011;52214;50.940;13.996;2023-02-11T07:13:43;17.60;;;8.68;;
65572;SDS011;52214;50.940;13.996;2023-02-11T07:16:10;16.03;;;8.60;;
65572;SDS011;52214;50.940;13.996;2023-02-11T07:18:38;15.70;;;7.82;;
65572;SDS011;52214;50.940;13.996;2023-02-11T07:21:05;18.30;;;8.57;;
65572;SDS011;52214;50.940;13.996;2023-02-11T07:23:32;16.30;;;8.30;;
65572;SDS011;52214;50.940;13.996;2023-02-11T07:26:03;17.53;;;8.60;;
65572;SDS011;52214;50.940;13.996;2023-02-11T07:28:29;16.75;;;9.00;;
65572;SDS011;52214;50.940;13.996;2023-02-11T07:30:55;15.02;;;7.70;;
65572;SDS011;52214;50.940;13.996;2023-02-11T07:33:20;19.27;;;8.50;;
65572;SDS011;52214;50.940;13.996;2023-02-11T07:35:46;15.13;;;8.25;;
65572;SDS011;52214;50.940;13.996;2023-02-11T07:38:12;16.27;;;8.43;;
65572;SDS011;52214;50.940;13.996;2023-02-11T07:40:38;17.80;;;7.95;;
65572;SDS011;52214;50.940;13.996;2023-02-11T07:43:03;16.23;;;8.13;;
65572;SDS011;52214;50.940;13.996;2023-02-11T07:45:29;15.52;;;8.52;;
65572;SDS011;52214;50.940;13.996;2023-02-11T07:47:55;14.20;;;8.30;;
65572;SDS011;52214;50.940;13.996;2023-02-11T07:50:20;14.53;;;7.63;;
65572;SDS011;52214;50.940;13.996;2023-02-11T07:52:46;15.80;;;7.53;;
65572;SDS011;52214;50.940;13.996;2023-02-11T07:55:11;15.67;;;8.03;;
65572;SDS011;52214;50.940;13.996;2023-02-11T07:57:37;13.63;;;7.77;;
65572;SDS011;52214;50.940;13.996;2023-02-11T08:00:03;15.27;;;8.65;;
65572;SDS011;52214;50.940;13.996;2023-02-11T08:02:29;17.50;;;8.93;;
65572;SDS011;52214;50.940;13.996;2023-02-11T08:04:55;16.43;;;8.33;;
65572;SDS011;52214;50.940;13.996;2023-02-11T08:07:21;15.10;;;7.60;;
65572;SDS011;52214;50.940;13.996;2023-02-11T08:09:47;14.70;;;7.67;;
65572;SDS011;52214;50.940;13.996;2023-02-11T08:12:12;14.18;;;7.53;;
65572;SDS011;52214;50.940;13.996;2023-02-11T08:14:38;17.07;;;8.63;;
65572;SDS011;52214;50.940;13.996;2023-02-11T08:17:03;14.15;;;7.82;;
65572;SDS011;52214;50.940;13.996;2023-02-11T08:19:29;15.75;;;8.35;;
65572;SDS011;52214;50.940;13.996;2023-02-11T08:21:55;15.23;;;7.77;;
65572;SDS011;52214;50.940;13.996;2023-02-11T08:24:22;16.92;;;7.80;;
65572;SDS011;52214;50.940;13.996;2023-02-11T08:26:47;14.85;;;7.68;;
65572;SDS011;52214;50.940;13.996;2023-02-11T08:29:14;16.47;;;7.70;;
65572;SDS011;52214;50.940;13.996;2023-02-11T08:31:42;15.23;;;7.72;;
65572;SDS011;52214;50.940;13.996;2023-02-11T08:34:11;16.25;;;8.38;;
65572;SDS011;52214;50.940;13.996;2023-02-11T08:36:38;13.65;;;7.05;;
65572;SDS011;52214;50.940;13.996;2023-02-11T08:39:07;15.38;;;7.68;;
65572;SDS011;52214;50.940;13.996;2023-02-11T08:41:36;13.23;;;7.43;;
65572;SDS011;52214;50.940;13.996;2023-02-11T08:44:02;14.82;;;8.00;;
65572;SDS011;52214;50.940;13.996;2023-02-11T08:46:28;14.55;;;8.05;;
65572;SDS011;52214;50.940;13.996;2023-02-11T08:48:54;12.73;;;7.10;;
65572;SDS011;52214;50.940;13.996;2023-02-11T08:51:21;15.95;;;7.90;;
65572;SDS011;52214;50.940;13.996;2023-02-11T08:53:49;14.57;;;7.85;;
65572;SDS011;52214;50.940;13.996;2023-02-11T08:56:16;14.27;;;7.60;;
65572;SDS011;52214;50.940;13.996;2023-02-11T08:58:44;13.98;;;7.90;;
65572;SDS011;52214;50.940;13.996;2023-02-11T09:01:11;13.70;;;7.10;;
65572;SDS011;52214;50.940;13.996;2023-02-11T09:03:38;14.13;;;7.78;;
65572;SDS011;52214;50.940;13.996;2023-02-11T09:06:05;14.20;;;7.40;;
65572;SDS011;52214;50.940;13.996;2023-02-11T09:08:34;14.88;;;7.65;;
65572;SDS011;52214;50.940;13.996;2023-02-11T09:11:00;14.10;;;7.65;;
65572;SDS011;52214;50.940;13.996;2023-02-11T09:13:26;13.50;;;6.87;;
65572;SDS011;52214;50.940;13.996;2023-02-11T09:15:52;12.25;;;6.80;;
65572;SDS011;52214;50.940;13.996;2023-02-11T09:18:18;15.97;;;7.43;;
65572;SDS011;52214;50.940;13.996;2023-02-11T09:20:43;13.50;;;7.28;;
65572;SDS011;52214;50.940;13.996;2023-02-11T09:23:09;14.03;;;7.27;;
65572;SDS011;52214;50.940;13.996;2023-02-11T09:25:37;16.35;;;7.82;;
65572;SDS011;52214;50.940;13.996;2023-02-11T09:28:05;14.77;;;7.68;;
65572;SDS011;52214;50.940;13.996;2023-02-11T09:30:31;15.07;;;8.00;;
65572;SDS011;52214;50.940;13.996;2023-02-11T09:32:57;14.20;;;7.57;;
65572;SDS011;52214;50.940;13.996;2023-02-11T09:35:23;13.73;;;7.40;;
65572;SDS011;52214;50.940;13.996;2023-02-11T09:37:48;13.70;;;6.60;;
65572;SDS011;52214;50.940;13.996;2023-02-11T09:40:14;13.57;;;7.10;;
65572;SDS011;52214;50.940;13.996;2023-02-11T09:42:50;12.80;;;7.03;;
65572;SDS011;52214;50.940;13.996;2023-02-11T09:45:23;12.57;;;7.07;;
65572;SDS011;52214;50.940;13.996;2023-02-11T09:50:22;12.80;;;7.07;;
65572;SDS011;52214;50.940;13.996;2023-02-11T09:53:06;12.40;;;6.88;;
65572;SDS011;52214;50.940;13.996;2023-02-11T09:55:42;12.75;;;6.88;;
65572;SDS011;52214;50.940;13.996;2023-02-11T09:58:12;12.75;;;6.90;;
65572;SDS011;52214;50.940;13.996;2023-02-11T10:00:46;13.13;;;6.72;;
65572;SDS011;52214;50.940;13.996;2023-02-11T10:03:22;12.30;;;6.90;;
65572;SDS011;52214;50.940;13.996;2023-02-11T10:25:22;11.77;;;6.53;;
65572;SDS011;52214;50.940;13.996;2023-02-11T10:27:51;12.68;;;7.25;;
65572;SDS011;52214;50.940;13.996;2023-02-11T10:30:22;12.27;;;6.90;;
65572;SDS011;52214;50.940;13.996;2023-02-11T10:32:59;12.65;;;6.90;;
65572;SDS011;52214;50.940;13.996;2023-02-11T10:35:28;14.27;;;7.45;;
65572;SDS011;52214;50.940;13.996;2023-02-11T10:37:54;12.57;;;6.72;;
65572;SDS011;52214;50.940;13.996;2023-02-11T10:40:22;13.00;;;6.60;;
65572;SDS011;52214;50.940;13.996;2023-02-11T10:42:51;12.20;;;6.60;;
65572;SDS011;52214;50.940;13.996;2023-02-11T10:45:22;12.52;;;6.68;;
65572;SDS011;52214;50.940;13.996;2023-02-11T10:47:52;13.15;;;6.75;;
65572;SDS011;52214;50.940;13.996;2023-02-11T10:50:21;12.75;;;7.30;;
65572;SDS011;52214;50.940;13.996;2023-02-11T10:52:49;11.90;;;6.13;;
65572;SDS011;52214;50.940;13.996;2023-02-11T10:55:16;12.77;;;7.13;;
65572;SDS011;52214;50.940;13.996;2023-02-11T10:58:00;11.48;;;6.50;;
65572;SDS011;52214;50.940;13.996;2023-02-11T11:00:33;10.87;;;6.43;;
65572;SDS011;52214;50.940;13.996;2023-02-11T11:03:04;12.15;;;6.65;;
65572;SDS011;52214;50.940;13.996;2023-02-11T11:05:57;12.63;;;6.53;;
65572;SDS011;52214;50.940;13.996;2023-02-11T11:08:41;12.05;;;7.22;;
65572;SDS011;52214;50.940;13.996;2023-02-11T11:11:13;11.90;;;6.47;;
65572;SDS011;52214;50.940;13.996;2023-02-11T11:13:58;12.67;;;7.00;;
65572;SDS011;52214;50.940;13.996;2023-02-11T11:16:26;10.85;;;6.22;;
65572;SDS011;52214;50.940;13.996;2023-02-11T11:21:40;10.65;;;5.93;;
65572;SDS011;52214;50.940;13.996;2023-02-11T11:32:02;11.55;;;6.15;;
65572;SDS011;52214;50.940;13.996;2023-02-11T11:34:32;11.57;;;6.30;;
65572;SDS011;52214;50.940;13.996;2023-02-11T11:37:10;12.40;;;5.85;;
65572;SDS011;52214;50.940;13.996;2023-02-11T11:39:45;11.65;;;6.05;;
65572;SDS011;52214;50.940;13.996;2023-02-11T11:42:29;11.73;;;5.90;;
65572;SDS011;52214;50.940;13.996;2023-02-11T11:44:59;11.18;;;6.88;;
65572;SDS011;52214;50.940;13.996;2023-02-11T11:47:29;11.30;;;6.33;;
65572;SDS011;52214;50.940;13.996;2023-02-11T11:58:09;11.68;;;6.20;;
65572;SDS011;52214;50.940;13.996;2023-02-11T12:15:16;10.67;;;5.30;;
65572;SDS011;52214;50.940;13.996;2023-02-11T12:18:10;11.73;;;5.53;;
65572;SDS011;52214;50.940;13.996;2023-02-11T12:21:04;11.65;;;5.85;;
65572;SDS011;52214;50.940;13.996;2023-02-11T12:23:54;11.13;;;4.97;;
65572;SDS011;52214;50.940;13.996;2023-02-11T12:26:42;10.02;;;5.82;;
65572;SDS011;52214;50.940;13.996;2023-02-11T13:07:04;9.48;;;5.10;;
65572;SDS011;52214;50.940;13.996;2023-02-11T13:09:39;10.77;;;5.95;;
65572;SDS011;52214;50.940;13.996;2023-02-11T13:12:09;9.60;;;5.30;;
65572;SDS011;52214;50.940;13.996;2023-02-11T13:15:00;10.38;;;5.50;;
65572;SDS011;52214;50.940;13.996;2023-02-11T13:17:36;9.60;;;5.35;;
65572;SDS011;52214;50.940;13.996;2023-02-11T13:22:53;9.38;;;5.53;;
65572;SDS011;52214;50.940;13.996;2023-02-11T13:25:38;7.97;;;4.80;;
65572;SDS011;52214;50.940;13.996;2023-02-11T13:28:15;9.57;;;5.00;;
65572;SDS011;52214;50.940;13.996;2023-02-11T13:30:49;10.48;;;5.30;;
65572;SDS011;52214;50.940;13.996;2023-02-11T13:33:29;9.63;;;5.10;;
65572;SDS011;52214;50.940;13.996;2023-02-11T13:38:38;8.87;;;4.73;;
65572;SDS011;52214;50.940;13.996;2023-02-11T13:41:12;9.57;;;4.93;;
65572;SDS011;52214;50.940;13.996;2023-02-11T13:43:41;8.95;;;5.07;;
65572;SDS011;52214;50.940;13.996;2023-02-11T13:46:09;9.30;;;4.95;;
65572;SDS011;52214;50.940;13.996;2023-02-11T13:48:38;9.00;;;5.00;;
65572;SDS011;52214;50.940;13.996;2023-02-11T13:51:12;9.35;;;4.75;;
65572;SDS011;52214;50.940;13.996;2023-02-11T13:53:55;8.82;;;5.15;;
65572;SDS011;52214;50.940;13.996;2023-02-11T13:56:38;8.73;;;4.28;;
65572;SDS011;52214;50.940;13.996;2023-02-11T14:02:02;9.40;;;4.83;;
65572;SDS011;52214;50.940;13.996;2023-02-11T14:16:16;9.17;;;4.67;;
65572;SDS011;52214;50.940;13.996;2023-02-11T14:18:58;9.25;;;4.63;;
65572;SDS011;52214;50.940;13.996;2023-02-11T14:27:10;8.27;;;4.90;;
65572;SDS011;52214;50.940;13.996;2023-02-11T14:29:48;7.77;;;4.47;;
65572;SDS011;52214;50.940;13.996;2023-02-11T14:40:39;8.77;;;4.63;;
65572;SDS011;52214;50.940;13.996;2023-02-11T14:43:11;8.07;;;4.30;;
65572;SDS011;52214;50.940;13.996;2023-02-11T14:45:47;8.63;;;4.40;;
65572;SDS011;52214;50.940;13.996;2023-02-11T14:48:18;8.65;;;4.63;;
65572;SDS011;52214;50.940;13.996;2023-02-11T14:50:49;7.65;;;4.25;;
65572;SDS011;52214;50.940;13.996;2023-02-11T14:53:19;9.05;;;4.90;;
65572;SDS011;52214;50.940;13.996;2023-02-11T14:55:48;8.13;;;4.27;;
65572;SDS011;52214;50.940;13.996;2023-02-11T14:58:18;8.65;;;4.50;;
65572;SDS011;52214;50.940;13.996;2023-02-11T15:00:48;7.28;;;4.32;;
65572;SDS011;52214;50.940;13.996;2023-02-11T15:03:35;8.27;;;4.65;;
65572;SDS011;52214;50.940;13.996;2023-02-11T15:08:33;8.77;;;4.40;;
65572;SDS011;52214;50.940;13.996;2023-02-11T15:11:01;8.32;;;4.50;;
65572;SDS011;52214;50.940;13.996;2023-02-11T15:13:31;7.78;;;4.38;;
65572;SDS011;52214;50.940;13.996;2023-02-11T15:16:03;10.02;;;4.45;;
65572;SDS011;52214;50.940;13.996;2023-02-11T15:18:32;7.88;;;4.47;;
65572;SDS011;52214;50.940;13.996;2023-02-11T15:21:02;7.80;;;3.87;;
65572;SDS011;52214;50.940;13.996;2023-02-11T15:23:28;7.82;;;4.18;;
65572;SDS011;52214;50.940;13.996;2023-02-11T15:25:54;8.25;;;4.60;;
65572;SDS011;52214;50.940;13.996;2023-02-11T15:28:22;7.75;;;4.32;;
65572;SDS011;52214;50.940;13.996;2023-02-11T15:30:57;8.18;;;4.43;;
65572;SDS011;52214;50.940;13.996;2023-02-11T15:33:26;7.80;;;4.30;;
65572;SDS011;52214;50.940;13.996;2023-02-11T15:35:55;7.95;;;4.30;;
65572;SDS011;52214;50.940;13.996;2023-02-11T15:38:21;7.63;;;4.20;;
65572;SDS011;52214;50.940;13.996;2023-02-11T15:40:52;7.15;;;4.00;;
65572;SDS011;52214;50.940;13.996;2023-02-11T15:43:20;8.55;;;4.80;;
65572;SDS011;52214;50.940;13.996;2023-02-11T15:45:53;8.90;;;4.40;;
65572;SDS011;52214;50.940;13.996;2023-02-11T15:48:24;8.07;;;4.45;;
65572;SDS011;52214;50.940;13.996;2023-02-11T15:51:00;7.90;;;4.47;;
65572;SDS011;52214;50.940;13.996;2023-02-11T15:53:32;7.63;;;4.17;;
65572;SDS011;52214;50.940;13.996;2023-02-11T15:56:09;7.13;;;4.10;;
65572;SDS011;52214;50.940;13.996;2023-02-11T15:58:40;8.02;;;4.20;;
65572;SDS011;52214;50.940;13.996;2023-02-11T16:01:08;7.93;;;3.92;;
65572;SDS011;52214;50.940;13.996;2023-02-11T16:03:34;8.00;;;4.43;;
65572;SDS011;52214;50.940;13.996;2023-02-11T16:16:59;7.53;;;4.47;;
65572;SDS011;52214;50.940;13.996;2023-02-11T16:19:29;9.35;;;4.40;;
65572;SDS011;52214;50.940;13.996;2023-02-11T16:21:57;7.53;;;4.50;;
65572;SDS011;52214;50.940;13.996;2023-02-11T16:24:27;7.32;;;3.90;;
65572;SDS011;52214;50.940;13.996;2023-02-11T16:26:56;8.27;;;4.30;;
65572;SDS011;52214;50.940;13.996;2023-02-11T16:29:26;7.20;;;4.00;;
65572;SDS011;52214;50.940;13.996;2023-02-11T16:32:05;6.50;;;3.78;;
65572;SDS011;52214;50.940;13.996;2023-02-11T16:34:34;7.05;;;3.97;;
65572;SDS011;52214;50.940;13.996;2023-02-11T16:37:02;6.82;;;3.65;;
65572;SDS011;52214;50.940;13.996;2023-02-11T16:39:29;7.83;;;4.13;;
65572;SDS011;52214;50.940;13.996;2023-02-11T16:41:55;6.78;;;3.90;;
65572;SDS011;52214;50.940;13.996;2023-02-11T16:44:21;7.07;;;3.92;;
65572;SDS011;52214;50.940;13.996;2023-02-11T16:46:48;6.83;;;3.63;;
65572;SDS011;52214;50.940;13.996;2023-02-11T16:49:16;8.27;;;3.78;;
65572;SDS011;52214;50.940;13.996;2023-02-11T16:51:48;7.18;;;3.83;;
65572;SDS011;52214;50.940;13.996;2023-02-11T16:54:15;7.38;;;3.75;;
65572;SDS011;52214;50.940;13.996;2023-02-11T16:56:41;7.32;;;3.95;;
65572;SDS011;52214;50.940;13.996;2023-02-11T16:59:07;6.00;;;3.43;;
65572;SDS011;52214;50.940;13.996;2023-02-11T17:01:34;7.65;;;3.90;;
65572;SDS011;52214;50.940;13.996;2023-02-11T17:04:00;7.60;;;3.65;;
65572;SDS011;52214;50.940;13.996;2023-02-11T17:06:26;6.87;;;3.87;;
65572;SDS011;52214;50.940;13.996;2023-02-11T17:08:52;6.35;;;3.58;;
65572;SDS011;52214;50.940;13.996;2023-02-11T17:11:18;7.30;;;3.93;;
65572;SDS011;52214;50.940;13.996;2023-02-11T17:13:44;6.63;;;3.95;;
65572;SDS011;52214;50.940;13.996;2023-02-11T17:16:18;7.00;;;3.73;;
65572;SDS011;52214;50.940;13.996;2023-02-11T17:18:46;8.13;;;4.38;;
65572;SDS011;52214;50.940;13.996;2023-02-11T17:21:13;6.35;;;3.40;;
65572;SDS011;52214;50.940;13.996;2023-02-11T17:23:38;6.20;;;3.47;;
65572;SDS011;52214;50.940;13.996;2023-02-11T17:26:04;7.87;;;3.93;;
65572;SDS011;52214;50.940;13.996;2023-02-11T17:28:30;7.88;;;3.80;;
65572;SDS011;52214;50.940;13.996;2023-02-11T17:30:56;6.57;;;3.70;;
65572;SDS011;52214;50.940;13.996;2023-02-11T17:33:22;7.17;;;3.70;;